Time;durP1;ratioP1;P1;durP2;ratioP2;P2;SDS_P1;SDS_P2;PMS_P1;PMS_P2;Temp;Humidity;BMP_temperature;BMP_pressure;BME280_temperature;BME280_humidity;BME280_pressure;Samples;Min_cycle;Max_cycle;Signal;HPM_P1;HPM_P2
2023/09/08 00:00:18;;;;;;;9.88;7.28;;;;;;;19.71;93.62;100735.31;8375638;28;20048;-60
2023/09/08 00:04:20;;;;;;;13.55;8.25;;;;;;;19.86;92.80;100748.97;8360855;28;20120;-63
2023/09/08 00:08:21;;;;;;;12.75;8.00;;;;;;;19.92;92.47;100742.72;8375786;28;20071;-63
2023/09/08 00:12:22;;;;;;;11.60;7.63;;;;;;;19.73;93.28;100740.59;8372479;28;20058;-62
2023/09/08 00:16:22;;;;;;;10.65;7.53;;;;;;;19.66;93.63;100735.03;8371443;28;20037;-62
2023/09/08 00:20:23;;;;;;;10.20;7.13;;;;;;;19.60;93.26;100727.56;8370881;28;20490;-59
2023/09/08 00:24:24;;;;;;;14.43;6.60;;;;;;;19.41;94.08;100728.19;8374889;28;20033;-59
2023/09/08 00:28:24;;;;;;;9.85;6.82;;;;;;;19.32;94.97;100730.19;8356346;28;20045;-58
2023/09/08 00:32:25;;;;;;;14.52;7.32;;;;;;;19.24;95.50;100727.53;8348164;28;20379;-63
2023/09/08 00:36:25;;;;;;;11.73;7.60;;;;;;;19.19;95.33;100732.72;8342972;28;20045;-61
2023/09/08 00:40:27;;;;;;;10.63;7.20;;;;;;;19.12;96.35;100723.56;8340632;28;20522;-62
2023/09/08 00:44:28;;;;;;;12.57;7.05;;;;;;;19.10;96.14;100742.13;8369425;28;20044;-62
2023/09/08 00:48:29;;;;;;;10.48;7.45;;;;;;;18.93;96.94;100735.09;8344356;28;20052;-62
2023/09/08 00:52:32;;;;;;;9.60;7.22;;;;;;;18.90;97.03;100729.16;8342279;28;20045;-63
2023/09/08 00:56:33;;;;;;;12.88;7.43;;;;;;;19.04;95.51;100733.78;8343426;28;20400;-63
2023/09/08 01:00:33;;;;;;;10.52;7.88;;;;;;;19.07;95.78;100737.00;8348126;28;20067;-63
2023/09/08 01:04:34;;;;;;;14.43;7.28;;;;;;;18.88;96.96;100737.56;8342982;28;20042;-63
2023/09/08 01:08:35;;;;;;;10.90;7.47;;;;;;;18.73;97.60;100733.94;8348686;28;20048;-63
2023/09/08 01:12:37;;;;;;;9.88;7.40;;;;;;;18.77;97.84;100728.97;8341885;28;20033;-62
2023/09/08 01:16:40;;;;;;;11.95;7.82;;;;;;;18.52;98.70;100725.66;8343966;28;20044;-63
2023/09/08 01:21:10;;;;;;;12.15;8.13;;;;;;;18.50;99.82;100727.72;8342013;28;20379;-62
2023/09/08 01:25:18;;;;;;;16.42;7.93;;;;;;;18.41;100.00;100722.50;8365703;28;20037;-63
2023/09/08 01:29:20;;;;;;;14.18;7.47;;;;;;;18.44;100.00;100727.59;8376780;28;20036;-60
2023/09/08 01:33:22;;;;;;;14.00;8.07;;;;;;;18.40;99.64;100724.41;8373871;28;20498;-60
2023/09/08 01:37:23;;;;;;;18.08;8.38;;;;;;;18.42;99.02;100719.56;8376506;28;20037;-60
2023/09/08 01:41:23;;;;;;;12.45;8.07;;;;;;;18.47;98.18;100713.53;8374207;28;20521;-63
2023/09/08 01:45:24;;;;;;;12.43;8.20;;;;;;;18.46;98.84;100709.97;8374718;28;20387;-63
2023/09/08 01:49:25;;;;;;;11.85;8.27;;;;;;;18.56;98.27;100705.06;8375168;28;20047;-63
2023/09/08 01:53:25;;;;;;;11.65;7.88;;;;;;;18.60;97.86;100700.91;8371862;28;20041;-63
2023/09/08 01:57:26;;;;;;;12.15;7.47;;;;;;;18.73;96.39;100706.56;8378465;28;20036;-63
2023/09/08 02:01:26;;;;;;;11.75;8.23;;;;;;;18.65;96.31;100709.41;8378746;28;20469;-63
2023/09/08 02:05:26;;;;;;;10.20;7.93;;;;;;;18.54;96.91;100718.06;8375456;28;20498;-63
2023/09/08 02:09:36;;;;;;;15.18;7.90;;;;;;;18.46;97.21;100709.97;8366481;28;20567;-63
2023/09/08 02:13:37;;;;;;;13.38;8.75;;;;;;;18.32;98.24;100718.09;8374695;28;20120;-63
2023/09/08 02:17:37;;;;;;;10.68;8.25;;;;;;;18.25;98.60;100712.53;8374076;28;20044;-63
2023/09/08 02:21:37;;;;;;;10.15;7.22;;;;;;;18.22;98.77;100715.63;8372960;28;20402;-63
2023/09/08 02:25:38;;;;;;;11.70;8.13;;;;;;;18.22;99.15;100712.03;8353269;28;20470;-63
2023/09/08 02:29:38;;;;;;;16.10;9.10;;;;;;;18.17;99.92;100709.84;8344285;28;20041;-63
2023/09/08 02:33:39;;;;;;;12.90;8.48;;;;;;;18.16;99.58;100702.69;8342023;28;20033;-61
2023/09/08 02:37:39;;;;;;;13.82;8.95;;;;;;;18.08;100.00;100704.66;8340463;28;20032;-63
2023/09/08 02:41:41;;;;;;;13.50;8.60;;;;;;;17.88;100.00;100696.09;8334684;28;20041;-63
2023/09/08 02:45:41;;;;;;;12.68;8.40;;;;;;;17.81;100.00;100697.84;8339840;28;20330;-62
2023/09/08 02:49:43;;;;;;;13.45;8.38;;;;;;;17.64;100.00;100701.72;8341701;28;20045;-63
2023/09/08 02:53:44;;;;;;;14.93;9.52;;;;;;;17.81;100.00;100706.03;8340519;28;20052;-62
2023/09/08 02:57:44;;;;;;;13.85;8.63;;;;;;;17.84;100.00;100708.41;8339765;28;20048;-63
2023/09/08 03:01:45;;;;;;;12.23;8.27;;;;;;;17.85;100.00;100709.28;8342063;28;20042;-58
2023/09/08 03:05:46;;;;;;;14.25;9.32;;;;;;;17.85;100.00;100704.66;8344035;28;20521;-58
2023/09/08 03:09:47;;;;;;;11.70;8.32;;;;;;;17.82;100.00;100705.03;8341162;28;20198;-57
2023/09/08 03:13:48;;;;;;;13.43;9.10;;;;;;;17.80;100.00;100708.94;8338882;28;20040;-59
2023/09/08 03:17:49;;;;;;;15.23;9.70;;;;;;;17.68;100.00;100702.22;8340587;28;20120;-59
2023/09/08 03:21:49;;;;;;;15.30;9.82;;;;;;;17.58;100.00;100702.47;8339944;28;20041;-59
2023/09/08 03:25:50;;;;;;;15.05;9.50;;;;;;;17.66;100.00;100699.69;8339251;28;20533;-59
2023/09/08 03:29:50;;;;;;;14.48;9.40;;;;;;;17.56;100.00;100696.31;8343878;28;20052;-59
2023/09/08 03:33:50;;;;;;;16.85;8.93;;;;;;;17.53;100.00;100691.19;8341076;28;20037;-59
2023/09/08 03:37:51;;;;;;;21.13;9.93;;;;;;;17.51;100.00;100693.28;8338628;28;20119;-59
2023/09/08 03:41:52;;;;;;;13.45;9.30;;;;;;;17.51;100.00;100690.56;8337971;28;20037;-60
2023/09/08 03:45:52;;;;;;;13.20;9.32;;;;;;;17.42;100.00;100683.41;8339916;28;20041;-59
2023/09/08 03:49:53;;;;;;;16.77;10.40;;;;;;;17.30;100.00;100688.41;8337993;28;20048;-60
2023/09/08 03:53:54;;;;;;;17.23;10.88;;;;;;;17.39;100.00;100687.31;8338766;28;20038;-59
2023/09/08 03:57:54;;;;;;;12.68;9.52;;;;;;;17.41;100.00;100674.34;8340770;28;20499;-59
2023/09/08 04:01:55;;;;;;;13.23;9.00;;;;;;;17.41;100.00;100684.41;8342587;28;20561;-59
2023/09/08 04:05:55;;;;;;;14.63;9.50;;;;;;;17.33;100.00;100676.28;8349283;28;20040;-57
2023/09/08 04:09:56;;;;;;;12.85;9.13;;;;;;;17.39;100.00;100679.13;8345854;28;20390;-57
2023/09/08 04:13:56;;;;;;;14.30;9.20;;;;;;;17.48;100.00;100682.72;8344087;28;20037;-61
2023/09/08 04:17:57;;;;;;;13.60;9.38;;;;;;;17.49;100.00;100692.59;8345558;28;20402;-62
2023/09/08 04:21:58;;;;;;;12.73;9.27;;;;;;;17.46;100.00;100679.31;8376766;28;20371;-61
2023/09/08 04:25:58;;;;;;;15.27;8.93;;;;;;;17.47;100.00;100678.25;8367070;28;20041;-61
2023/09/08 04:30:00;;;;;;;12.02;8.25;;;;;;;17.50;100.00;100683.38;8348799;28;20041;-61
2023/09/08 04:34:00;;;;;;;11.27;9.07;;;;;;;17.43;100.00;100679.66;8343841;28;20110;-60
2023/09/08 04:38:01;;;;;;;12.25;9.10;;;;;;;17.43;100.00;100691.44;8343940;28;20030;-62
2023/09/08 04:42:03;;;;;;;15.15;9.05;;;;;;;17.32;100.00;100683.63;8344937;28;20453;-62
2023/09/08 04:46:03;;;;;;;17.70;9.52;;;;;;;17.29;100.00;100681.25;8342679;28;20064;-61
2023/09/08 04:50:05;;;;;;;16.75;9.32;;;;;;;17.38;100.00;100680.16;8322157;28;20128;-63
2023/09/08 04:54:06;;;;;;;16.88;9.30;;;;;;;17.49;100.00;100693.47;8341618;28;20041;-58
2023/09/08 04:58:06;;;;;;;12.77;9.23;;;;;;;17.48;100.00;100690.91;8344168;28;20528;-59
2023/09/08 05:02:07;;;;;;;12.05;9.18;;;;;;;17.34;100.00;100683.44;8342323;28;20041;-58
2023/09/08 05:06:08;;;;;;;17.08;9.63;;;;;;;17.30;100.00;100693.88;8342652;28;20055;-58
2023/09/08 05:10:09;;;;;;;13.43;9.50;;;;;;;17.39;100.00;100697.44;8340828;28;20793;-58
2023/09/08 05:14:12;;;;;;;17.15;9.93;;;;;;;17.38;100.00;100690.25;8341993;28;20091;-60
2023/09/08 05:18:12;;;;;;;17.83;9.82;;;;;;;17.35;100.00;100691.47;8340189;28;20033;-59
2023/09/08 05:22:13;;;;;;;19.95;9.70;;;;;;;17.36;100.00;100692.31;8342131;28;20042;-58
2023/09/08 05:26:13;;;;;;;14.82;9.30;;;;;;;17.42;100.00;100697.06;8341199;28;20462;-57
2023/09/08 05:30:14;;;;;;;14.82;9.45;;;;;;;17.49;100.00;100692.59;8344788;28;20033;-58
2023/09/08 05:34:15;;;;;;;15.73;9.40;;;;;;;17.61;100.00;100688.44;8339244;28;20454;-57
2023/09/08 05:38:16;;;;;;;14.88;9.25;;;;;;;17.79;100.00;100694.44;8341069;28;20170;-57
2023/09/08 05:42:17;;;;;;;17.23;10.32;;;;;;;17.92;100.00;100697.41;8354061;28;20478;-56
2023/09/08 05:46:18;;;;;;;15.40;9.27;;;;;;;18.41;100.00;100692.38;8363843;28;20114;-58
2023/09/08 05:50:19;;;;;;;14.55;8.95;;;;;;;18.28;100.00;100703.09;8366890;28;20406;-58
2023/09/08 05:54:20;;;;;;;17.33;9.23;;;;;;;18.41;100.00;100709.66;8357742;28;20033;-58
2023/09/08 05:58:21;;;;;;;15.25;9.40;;;;;;;18.58;100.00;100713.94;8350410;28;20060;-58
2023/09/08 06:02:22;;;;;;;17.45;9.30;;;;;;;18.69;100.00;100708.00;8352643;28;20036;-60
2023/09/08 06:06:23;;;;;;;15.52;9.40;;;;;;;18.84;99.97;100710.72;8350326;28;20373;-59
2023/09/08 06:10:23;;;;;;;16.55;9.25;;;;;;;19.03;99.08;100708.25;8345340;28;20090;-58
2023/09/08 06:14:24;;;;;;;12.80;8.45;;;;;;;19.33;96.95;100706.34;8342182;28;20037;-57
2023/09/08 06:18:29;;;;;;;14.27;9.20;;;;;;;19.36;96.78;100706.84;8343933;28;20040;-59
2023/09/08 06:22:31;;;;;;;14.80;9.20;;;;;;;19.56;95.77;100720.78;8355428;28;20076;-61
2023/09/08 06:26:32;;;;;;;13.10;8.85;;;;;;;19.75;95.22;100716.53;8340091;28;20064;-61
2023/09/08 06:30:33;;;;;;;12.40;8.80;;;;;;;19.81;94.41;100713.03;8345388;28;20040;-61
2023/09/08 06:34:35;;;;;;;15.27;9.32;;;;;;;20.03;94.17;100709.25;8337724;28;20040;-61
2023/09/08 06:38:37;;;;;;;11.23;8.80;;;;;;;20.43;93.10;100714.06;8339781;28;20160;-61
2023/09/08 06:42:38;;;;;;;14.55;8.30;;;;;;;20.67;92.38;100716.34;8340305;28;20033;-59
2023/09/08 06:46:53;;;;;;;14.50;8.35;;;;;;;20.98;90.89;100717.66;8339724;28;20065;-59
2023/09/08 06:50:56;;;;;;;12.88;8.07;;;;;;;21.17;89.62;100713.31;8339208;28;20041;-58
2023/09/08 06:54:58;;;;;;;15.15;8.10;;;;;;;21.35;88.54;100710.88;8337257;28;20135;-64
2023/09/08 06:58:59;;;;;;;11.70;7.85;;;;;;;21.57;89.13;100712.41;8339145;28;20037;-64
2023/09/08 07:02:59;;;;;;;11.77;7.40;;;;;;;21.97;88.23;100705.97;8340546;28;20128;-58
2023/09/08 07:07:03;;;;;;;13.27;7.60;;;;;;;22.18;84.61;100708.56;8339558;28;20698;-59
2023/09/08 07:11:04;;;;;;;11.77;6.55;;;;;;;22.37;83.49;100706.84;8335805;28;20057;-59
2023/09/08 07:15:05;;;;;;;11.80;6.40;;;;;;;22.47;83.20;100708.13;8340652;28;20490;-58
2023/09/08 07:19:06;;;;;;;12.60;6.38;;;;;;;22.73;80.64;100712.78;8351164;28;20037;-57
2023/09/08 07:23:07;;;;;;;9.55;5.70;;;;;;;23.21;78.58;100723.28;8338781;28;20086;-58
2023/09/08 07:27:08;;;;;;;10.95;5.93;;;;;;;23.26;78.29;100730.09;8338137;28;20041;-58
2023/09/08 07:31:09;;;;;;;9.13;5.50;;;;;;;23.44;77.30;100721.94;8338037;28;20497;-57
2023/09/08 07:35:14;;;;;;;8.43;5.85;;;;;;;23.66;76.10;100720.59;8337646;28;20097;-64
2023/09/08 07:39:16;;;;;;;8.00;5.20;;;;;;;23.71;75.75;100713.31;8335641;28;20120;-61
2023/09/08 07:43:16;;;;;;;8.32;5.65;;;;;;;24.10;74.47;100723.31;8338724;28;20037;-58
2023/09/08 07:47:17;;;;;;;8.75;5.30;;;;;;;24.56;72.96;100713.59;8335631;28;20041;-58
2023/09/08 07:51:18;;;;;;;9.43;5.75;;;;;;;24.31;72.65;100709.94;8336396;28;20037;-58
2023/09/08 07:55:22;;;;;;;8.48;5.53;;;;;;;24.45;73.25;100721.75;8334259;28;20037;-58
2023/09/08 07:59:22;;;;;;;;;;;;;;;24.58;72.98;100728.00;8343980;28;20615;-58
2023/09/08 08:03:23;;;;;;;7.70;5.13;;;;;;;25.02;73.19;100718.69;8340587;28;20412;-65
2023/09/08 08:07:23;;;;;;;7.78;5.50;;;;;;;25.34;71.34;100722.19;8341730;28;20060;-64
2023/09/08 08:11:25;;;;;;;9.18;5.32;;;;;;;25.28;72.05;100721.13;8338463;28;20044;-64
2023/09/08 08:15:36;;;;;;;9.60;4.97;;;;;;;25.80;73.24;100706.63;8336309;28;20087;-63
2023/09/08 08:19:36;;;;;;;9.35;5.18;;;;;;;26.00;70.69;100711.91;8371570;28;20056;-64
2023/09/08 08:23:38;;;;;;;10.27;4.93;;;;;;;25.91;70.56;100707.75;8373345;28;20051;-59
2023/09/08 08:27:40;;;;;;;9.30;5.20;;;;;;;26.06;69.44;100711.81;8371631;28;20048;-59
2023/09/08 08:31:40;;;;;;;7.35;4.72;;;;;;;26.14;69.66;100708.69;8371647;28;20033;-60
2023/09/08 08:35:41;;;;;;;5.90;4.47;;;;;;;26.44;70.17;100712.25;8371339;28;20037;-60
2023/09/08 08:39:41;;;;;;;8.00;5.28;;;;;;;26.56;68.78;100713.13;8374970;28;20052;-60
2023/09/08 08:43:44;;;;;;;9.65;4.85;;;;;;;26.86;68.29;100712.22;8373594;28;20040;-59
2023/09/08 08:47:45;;;;;;;6.75;4.35;;;;;;;27.17;68.69;100709.03;8373375;28;20052;-60
2023/09/08 08:51:46;;;;;;;11.32;4.72;;;;;;;27.64;67.19;100710.63;8364462;28;20092;-59
2023/09/08 08:55:49;;;;;;;6.18;4.45;;;;;;;27.87;64.88;100705.03;8347990;28;20049;-59
2023/09/08 08:59:51;;;;;;;7.03;4.50;;;;;;;27.90;65.11;100693.41;8352850;28;20094;-58
2023/09/08 09:03:52;;;;;;;11.85;4.72;;;;;;;27.91;64.35;100706.22;8348215;28;20043;-61
2023/09/08 09:07:54;;;;;;;10.60;4.60;;;;;;;27.99;65.21;100705.81;8348634;28;20354;-61
2023/09/08 09:11:55;;;;;;;8.98;4.20;;;;;;;28.04;64.04;100705.88;8372655;28;20090;-61
2023/09/08 09:16:00;;;;;;;8.52;4.25;;;;;;;28.25;63.85;100703.25;8368122;28;20036;-59
2023/09/08 09:20:20;;;;;;;6.22;3.83;;;;;;;28.43;63.40;100704.94;8366030;28;20498;-58
2023/09/08 09:24:38;;;;;;;6.00;4.25;;;;;;;28.37;61.48;100709.56;8346763;28;20060;-58
2023/09/08 09:28:48;;;;;;;8.15;4.63;;;;;;;29.23;61.27;100699.81;8340160;28;20128;-58
2023/09/08 09:33:02;;;;;;;7.47;3.95;;;;;;;31.15;57.32;100693.97;8357327;28;20048;-57
2023/09/08 09:37:05;;;;;;;;;;;;;;;32.89;53.98;100694.69;8350935;28;20036;-59
2023/09/08 09:41:05;;;;;;;8.60;3.92;;;;;;;33.76;51.81;100699.75;8362946;28;19925;-58
2023/09/08 09:45:06;;;;;;;8.35;4.00;;;;;;;33.97;50.10;100706.13;8359092;28;20028;-57
2023/09/08 09:49:11;;;;;;;6.63;3.67;;;;;;;34.82;50.42;100702.69;8347479;28;20487;-58
2023/09/08 09:53:14;;;;;;;10.93;3.70;;;;;;;35.09;49.97;100700.16;8338619;28;20471;-57
2023/09/08 09:57:14;;;;;;;8.57;3.58;;;;;;;35.87;48.47;100697.84;8341772;28;20029;-58
2023/09/08 10:01:16;;;;;;;6.60;3.80;;;;;;;35.09;48.46;100697.34;8340015;28;20053;-58
2023/09/08 10:05:17;;;;;;;8.45;3.88;;;;;;;35.84;48.30;100693.66;8341020;28;20033;-57
2023/09/08 10:09:19;;;;;;;7.70;4.20;;;;;;;36.37;47.28;100692.31;8340532;28;20056;-58
2023/09/08 10:13:28;;;;;;;6.57;4.15;;;;;;;36.17;47.50;100698.25;8344611;28;20037;-58
2023/09/08 10:17:30;;;;;;;7.35;3.60;;;;;;;36.27;46.97;100689.63;8340709;28;20048;-57
2023/09/08 10:21:35;;;;;;;8.38;3.83;;;;;;;35.85;47.39;100684.06;8345610;28;20044;-59
2023/09/08 10:25:43;;;;;;;8.55;4.28;;;;;;;36.45;47.94;100682.31;8322836;28;20059;-59
2023/09/08 10:29:44;;;;;;;5.45;3.78;;;;;;;36.71;47.24;100692.84;8342956;28;20041;-59
2023/09/08 10:33:45;;;;;;;5.85;4.18;;;;;;;37.07;46.34;100679.81;8347071;28;20291;-58
2023/09/08 10:37:46;;;;;;;5.78;3.60;;;;;;;37.21;45.33;100689.16;8338781;28;20501;-61
2023/09/08 10:41:46;;;;;;;9.45;3.78;;;;;;;36.74;45.76;100680.97;8340918;28;20056;-58
2023/09/08 10:45:47;;;;;;;6.20;3.80;;;;;;;38.08;45.27;100680.50;8339481;28;20541;-59
2023/09/08 10:49:50;;;;;;;6.55;4.22;;;;;;;37.77;44.72;100682.38;8337240;28;20132;-59
2023/09/08 10:53:50;;;;;;;7.77;4.13;;;;;;;37.70;44.73;100681.94;8339616;28;20037;-58
2023/09/08 10:57:54;;;;;;;6.95;3.83;;;;;;;37.56;45.13;100686.75;8341055;28;20513;-59
2023/09/08 11:01:55;;;;;;;6.15;3.50;;;;;;;38.47;43.10;100681.50;8342006;28;20041;-58
2023/09/08 11:05:56;;;;;;;7.68;3.40;;;;;;;39.00;42.68;100678.75;8341537;28;20045;-58
2023/09/08 11:09:56;;;;;;;7.35;3.80;;;;;;;39.38;41.22;100684.72;8335580;28;20045;-59
2023/09/08 11:13:57;;;;;;;5.43;3.08;;;;;;;39.16;43.23;100680.00;8333569;28;20041;-61
2023/09/08 11:18:04;;;;;;;6.95;3.45;;;;;;;38.17;42.56;100679.44;8334139;28;20227;-61
2023/09/08 11:22:05;;;;;;;5.68;3.15;;;;;;;38.35;42.09;100678.44;8334480;28;20032;-61
2023/09/08 11:26:06;;;;;;;5.10;3.50;;;;;;;39.78;40.50;100678.72;8334873;28;20044;-61
2023/09/08 11:30:08;;;;;;;8.55;3.72;;;;;;;38.37;41.68;100670.47;8338207;28;20032;-61
2023/09/08 11:34:13;;;;;;;4.95;3.00;;;;;;;38.39;41.82;100672.97;8336161;28;20122;-61
2023/09/08 11:38:14;;;;;;;9.40;3.55;;;;;;;40.76;40.39;100677.78;8332809;28;20061;-61
2023/09/08 11:42:15;;;;;;;3.35;2.85;;;;;;;40.04;40.55;100671.13;8336658;28;20038;-61
2023/09/08 11:46:17;;;;;;;4.63;3.40;;;;;;;40.30;40.35;100669.16;8338149;28;20041;-61
2023/09/08 11:50:18;;;;;;;4.25;3.38;;;;;;;39.93;39.83;100669.78;8336985;28;20386;-58
2023/09/08 11:54:19;;;;;;;5.82;3.38;;;;;;;40.74;39.95;100671.63;8338518;28;20037;-59
2023/09/08 11:58:20;;;;;;;8.40;3.85;;;;;;;39.11;40.96;100668.81;8334845;28;20422;-58
2023/09/08 12:02:21;;;;;;;7.60;3.05;;;;;;;38.50;41.67;100665.91;8339950;28;20367;-59
2023/09/08 12:06:28;;;;;;;6.65;3.72;;;;;;;38.13;41.82;100669.94;8342902;28;20036;-59
2023/09/08 12:10:29;;;;;;;5.82;3.38;;;;;;;38.58;41.40;100665.16;8341316;28;20750;-59
2023/09/08 12:14:30;;;;;;;6.32;3.35;;;;;;;39.60;39.97;100659.22;8339454;28;20388;-59
2023/09/08 12:18:39;;;;;;;5.55;3.17;;;;;;;39.98;39.84;100655.47;8349902;28;20143;-59
2023/09/08 12:22:48;;;;;;;3.70;3.22;;;;;;;37.78;43.13;100662.28;8348674;28;20120;-59
2023/09/08 12:26:48;;;;;;;5.40;3.97;;;;;;;36.02;45.77;100649.75;8354450;28;20061;-62
2023/09/08 12:30:50;;;;;;;7.32;3.70;;;;;;;34.09;48.01;100640.06;8349705;28;20044;-62
2023/09/08 12:34:52;;;;;;;8.13;4.55;;;;;;;34.40;49.96;100637.88;8344928;28;20499;-59
2023/09/08 12:38:53;;;;;;;4.63;3.45;;;;;;;33.94;48.36;100624.19;8343000;28;20045;-60
2023/09/08 12:42:53;;;;;;;5.90;3.65;;;;;;;33.99;49.63;100628.09;8345457;28;20086;-58
2023/09/08 12:46:54;;;;;;;9.02;3.78;;;;;;;33.12;50.12;100637.19;8344277;28;20045;-59
2023/09/08 12:50:54;;;;;;;7.47;3.45;;;;;;;32.60;51.39;100637.59;8341576;28;20503;-59
2023/09/08 12:54:55;;;;;;;6.80;3.33;;;;;;;32.42;52.49;100635.34;8344969;28;20033;-65
2023/09/08 12:58:55;;;;;;;8.98;4.05;;;;;;;32.66;52.28;100624.41;8344934;28;20043;-64
2023/09/08 13:02:56;;;;;;;5.75;3.42;;;;;;;32.46;52.50;100628.06;8353778;28;20037;-65
2023/09/08 13:06:58;;;;;;;4.27;3.80;;;;;;;32.29;52.65;100627.47;8347194;28;20045;-65
2023/09/08 13:10:58;;;;;;;7.45;3.58;;;;;;;32.40;52.44;100619.94;8344008;28;20283;-64
2023/09/08 13:14:59;;;;;;;7.82;3.58;;;;;;;32.17;51.90;100612.94;8339773;28;20049;-61
2023/09/08 13:18:59;;;;;;;8.45;4.03;;;;;;;32.38;51.92;100614.63;8332249;28;20041;-62
2023/09/08 13:23:00;;;;;;;5.13;3.55;;;;;;;32.32;51.03;100615.72;8338581;28;20135;-62
2023/09/08 13:27:00;;;;;;;9.13;4.13;;;;;;;32.36;51.57;100616.88;8339576;28;20185;-62
2023/09/08 13:31:02;;;;;;;9.57;3.42;;;;;;;33.14;51.33;100610.56;8342127;28;20628;-62
2023/09/08 13:35:03;;;;;;;7.47;3.83;;;;;;;33.30;51.57;100600.94;8338807;28;20116;-62
2023/09/08 13:39:03;;;;;;;5.60;3.58;;;;;;;33.23;51.08;100605.19;8342873;28;20061;-62
2023/09/08 13:43:04;;;;;;;6.97;3.90;;;;;;;32.80;51.44;100609.53;8342900;28;20037;-62
2023/09/08 13:47:04;;;;;;;7.32;3.63;;;;;;;32.45;52.08;100609.59;8341442;28;20410;-62
2023/09/08 13:51:05;;;;;;;6.63;3.45;;;;;;;32.27;51.85;100601.75;8341346;28;20085;-62
2023/09/08 13:55:06;;;;;;;5.25;3.10;;;;;;;32.71;51.73;100596.38;8337986;28;20083;-62
2023/09/08 13:59:08;;;;;;;5.30;3.22;;;;;;;32.58;52.48;100592.22;8365855;28;20509;-62
2023/09/08 14:03:09;;;;;;;8.55;4.53;;;;;;;32.49;53.44;100593.91;8375419;28;20037;-62
2023/09/08 14:07:09;;;;;;;6.03;3.67;;;;;;;32.38;52.25;100586.63;8378114;28;20249;-62
2023/09/08 14:11:12;;;;;;;4.70;3.00;;;;;;;32.45;52.02;100587.19;8373475;28;20037;-62
2023/09/08 14:15:15;;;;;;;9.60;6.68;;;;;;;32.45;52.84;100581.59;8374081;28;20045;-62
2023/09/08 14:19:15;;;;;;;4.50;3.60;;;;;;;32.54;52.34;100582.72;8370759;28;20048;-62
2023/09/08 14:23:16;;;;;;;5.97;3.08;;;;;;;32.48;52.45;100583.00;8371261;28;20029;-62
2023/09/08 14:27:16;;;;;;;5.93;3.83;;;;;;;32.37;51.98;100584.97;8372532;28;20044;-62
2023/09/08 14:31:17;;;;;;;9.48;3.88;;;;;;;32.52;52.53;100582.13;8375103;28;20064;-62
2023/09/08 14:35:17;;;;;;;5.35;3.65;;;;;;;32.46;51.63;100572.06;8371987;28;20494;-62
2023/09/08 14:39:18;;;;;;;10.15;3.65;;;;;;;32.32;51.58;100576.53;8372174;28;20095;-62
2023/09/08 14:43:19;;;;;;;6.32;3.90;;;;;;;32.26;52.06;100583.25;8371111;28;20491;-62
2023/09/08 14:47:19;;;;;;;6.17;3.83;;;;;;;32.31;51.92;100580.44;8370835;28;20145;-62
2023/09/08 14:51:20;;;;;;;12.98;3.92;;;;;;;32.42;52.35;100568.16;8375509;28;20842;-61
2023/09/08 14:55:20;;;;;;;5.00;3.80;;;;;;;32.61;50.99;100569.25;8372275;28;20097;-62
2023/09/08 14:59:20;;;;;;;8.50;3.75;;;;;;;32.55;51.77;100570.38;8373803;28;20090;-62
2023/09/08 15:03:21;;;;;;;10.00;4.40;;;;;;;32.59;50.81;100560.28;8375605;28;20468;-62
2023/09/08 15:07:21;;;;;;;7.18;3.97;;;;;;;32.41;52.22;100568.44;8368745;28;20052;-66
2023/09/08 15:11:22;;;;;;;3.72;2.92;;;;;;;32.28;51.96;100564.22;8364669;28;20044;-62
2023/09/08 15:15:23;;;;;;;6.32;4.38;;;;;;;32.24;51.82;100579.91;8366841;28;20032;-65
2023/09/08 15:19:24;;;;;;;8.05;4.40;;;;;;;32.29;51.92;100576.28;8366832;28;20037;-65
2023/09/08 15:23:25;;;;;;;7.57;3.80;;;;;;;32.46;51.90;100566.47;8372102;28;20048;-66
2023/09/08 15:27:26;;;;;;;8.25;4.10;;;;;;;32.33;52.91;100568.97;8373314;28;20128;-58
2023/09/08 15:31:26;;;;;;;5.07;4.00;;;;;;;32.25;52.09;100561.97;8374158;28;20559;-59
2023/09/08 15:35:26;;;;;;;5.70;3.95;;;;;;;32.18;52.04;100558.66;8367170;28;20124;-62
2023/09/08 15:39:27;;;;;;;5.88;3.70;;;;;;;32.13;52.18;100561.44;8369592;28;20040;-62
2023/09/08 15:43:27;;;;;;;7.20;4.40;;;;;;;32.18;52.86;100565.09;8375256;28;20048;-62
2023/09/08 15:47:28;;;;;;;4.78;3.42;;;;;;;32.15;52.51;100560.06;8370854;28;20168;-61
2023/09/08 15:51:28;;;;;;;7.07;4.13;;;;;;;32.24;51.84;100554.72;8366829;28;20043;-58
2023/09/08 15:55:29;;;;;;;9.60;4.10;;;;;;;32.13;53.49;100555.84;8365327;28;20123;-59
2023/09/08 15:59:30;;;;;;;7.32;4.10;;;;;;;32.04;52.12;100557.53;8378260;28;20032;-59
2023/09/08 16:03:30;;;;;;;14.30;4.72;;;;;;;32.00;52.50;100557.25;8377131;28;20124;-59
2023/09/08 16:07:31;;;;;;;7.50;4.38;;;;;;;32.01;53.37;100560.88;8376154;28;20036;-58
2023/09/08 16:11:32;;;;;;;4.68;3.78;;;;;;;31.97;52.43;100556.97;8376406;28;20501;-58
2023/09/08 16:15:33;;;;;;;6.15;4.30;;;;;;;32.03;52.73;100553.06;8375389;28;20525;-63
2023/09/08 16:19:34;;;;;;;5.25;4.25;;;;;;;32.00;53.16;100550.81;8375098;28;20033;-62
2023/09/08 16:23:35;;;;;;;9.27;4.25;;;;;;;31.92;53.48;100548.56;8356536;28;20473;-62
2023/09/08 16:27:35;;;;;;;10.90;5.05;;;;;;;31.95;52.56;100546.06;8353593;28;20401;-60
2023/09/08 16:31:40;;;;;;;7.88;5.60;;;;;;;31.82;53.88;100549.41;8352671;28;20479;-60
2023/09/08 16:35:41;;;;;;;5.43;4.50;;;;;;;31.71;54.80;100546.88;8356568;28;20059;-60
2023/09/08 16:39:41;;;;;;;10.50;4.80;;;;;;;31.67;54.42;100545.72;8350845;28;20120;-60
2023/09/08 16:43:42;;;;;;;9.00;4.80;;;;;;;31.60;54.13;100556.34;8348371;28;20049;-60
2023/09/08 16:47:42;;;;;;;9.15;4.47;;;;;;;31.53;54.13;100550.19;8346893;28;20138;-59
2023/09/08 16:51:43;;;;;;;7.00;4.40;;;;;;;31.46;54.92;100549.59;8340261;28;20053;-59
2023/09/08 16:55:43;;;;;;;9.18;4.60;;;;;;;31.37;55.21;100554.06;8344883;28;20037;-60
2023/09/08 16:59:44;;;;;;;7.45;5.20;;;;;;;31.29;55.61;100549.84;8343131;28;20052;-59
2023/09/08 17:03:44;;;;;;;7.65;4.80;;;;;;;31.18;55.90;100547.25;8350384;28;20057;-60
2023/09/08 17:07:45;;;;;;;12.73;5.93;;;;;;;31.12;57.15;100554.81;8343999;28;20041;-58
2023/09/08 17:11:46;;;;;;;9.57;5.03;;;;;;;31.01;58.15;100558.66;8341143;28;20410;-58
2023/09/08 17:15:47;;;;;;;6.35;4.85;;;;;;;30.88;57.80;100563.91;8343746;28;20091;-58
2023/09/08 17:19:47;;;;;;;5.90;4.60;;;;;;;30.78;57.73;100561.06;8341130;28;20044;-58
2023/09/08 17:23:47;;;;;;;6.32;4.50;;;;;;;30.63;59.51;100558.16;8354355;28;20045;-58
2023/09/08 17:27:48;;;;;;;6.63;4.30;;;;;;;30.39;60.02;100553.00;8341131;28;20379;-62
2023/09/08 17:31:48;;;;;;;8.32;4.78;;;;;;;30.16;61.37;100550.56;8342915;28;20094;-62
2023/09/08 17:35:49;;;;;;;5.65;4.28;;;;;;;30.08;59.69;100548.31;8339235;28;20155;-66
2023/09/08 17:39:49;;;;;;;6.40;4.80;;;;;;;29.91;61.06;100558.75;8343529;28;20112;-66
2023/09/08 17:43:50;;;;;;;6.55;4.75;;;;;;;29.65;62.88;100565.22;8343270;28;20045;-66
2023/09/08 17:47:50;;;;;;;9.50;5.32;;;;;;;29.54;62.45;100563.38;8340386;28;20510;-60
2023/09/08 17:51:51;;;;;;;5.90;5.15;;;;;;;29.57;61.79;100557.28;8341676;28;20410;-60
2023/09/08 17:55:51;;;;;;;8.23;4.77;;;;;;;29.43;61.77;100556.00;8338713;28;20512;-65
2023/09/08 17:59:51;;;;;;;11.23;5.33;;;;;;;29.17;63.53;100562.41;8341833;28;20816;-65
2023/09/08 18:03:52;;;;;;;8.23;5.20;;;;;;;28.76;69.26;100574.13;8335166;28;20351;-63
2023/09/08 18:07:52;;;;;;;7.63;5.60;;;;;;;28.42;67.96;100575.28;8347868;28;20517;-64
2023/09/08 18:11:54;;;;;;;7.00;4.78;;;;;;;27.68;72.75;100572.88;8335982;28;20041;-66
2023/09/08 18:15:59;;;;;;;7.40;4.60;;;;;;;27.55;73.65;100573.19;8337725;28;20037;-60
2023/09/08 18:20:00;;;;;;;13.20;4.97;;;;;;;27.58;73.99;100575.47;8336897;28;20044;-60
2023/09/08 18:24:00;;;;;;;7.75;5.25;;;;;;;27.66;71.62;100575.91;8338417;28;20336;-60
2023/09/08 18:28:01;;;;;;;8.25;5.28;;;;;;;27.35;73.53;100578.38;8337889;28;20042;-61
2023/09/08 18:32:01;;;;;;;6.80;5.90;;;;;;;27.08;77.09;100583.63;8338734;28;20045;-60